Terminal Aerodrome Forecast
Issued by NWS

Home | Current Version | Previous Version | Text Only | Print | Product List | Glossary On
Versions: 1 2 3 4 5 6 7 8 9 10 11 12 13 14 15 16 17 18 19 20 21 22 23 24
000
FTUS46 KMFR 211720
TAFOTH
TAF
KOTH 211720Z 2118/2218 27010KT P6SM -SHRA SCT015 BKN035
     FM212100 35012G20KT P6SM -SHRA SCT015 BKN035
     FM220200 36008KT P6SM -SHRA BKN015 OVC035
     FM220500 VRB03KT P6SM -SHRA OVC015=

USA.gov is the U.S. government's official web portal to all federal, state and local government web resources and services.